sensor_id;sensor_type;location;lat;lon;timestamp;temperature;humidity
42803;DHT22;28447;48.682;9.022;2023-06-19T04:00:10;19.80;99.90
42803;DHT22;28447;48.682;9.022;2023-06-19T04:02:39;19.80;99.90
42803;DHT22;28447;48.682;9.022;2023-06-19T04:05:05;19.70;99.90
42803;DHT22;28447;48.682;9.022;2023-06-19T04:07:31;19.70;99.90
42803;DHT22;28447;48.682;9.022;2023-06-19T04:09:57;19.60;99.90
42803;DHT22;28447;48.682;9.022;2023-06-19T04:12:23;19.30;99.90
42803;DHT22;28447;48.682;9.022;2023-06-19T04:14:49;19.10;99.90
42803;DHT22;28447;48.682;9.022;2023-06-19T04:17:14;19.00;99.90
42803;DHT22;28447;48.682;9.022;2023-06-19T04:19:41;18.90;99.90
42803;DHT22;28447;48.682;9.022;2023-06-19T04:22:06;18.80;99.90
42803;DHT22;28447;48.682;9.022;2023-06-19T04:24:32;18.80;99.90
42803;DHT22;28447;48.682;9.022;2023-06-19T04:26:57;18.80;99.90
42803;DHT22;28447;48.682;9.022;2023-06-19T04:29:23;18.80;99.90
42803;DHT22;28447;48.682;9.022;2023-06-19T04:31:49;18.80;99.90
42803;DHT22;28447;48.682;9.022;2023-06-19T04:34:18;18.80;99.90
42803;DHT22;28447;48.682;9.022;2023-06-19T04:36:47;18.80;99.90
42803;DHT22;28447;48.682;9.022;2023-06-19T04:39:13;18.90;99.90
42803;DHT22;28447;48.682;9.022;2023-06-19T04:41:41;18.90;99.90
42803;DHT22;28447;48.682;9.022;2023-06-19T04:44:06;18.90;99.90
42803;DHT22;28447;48.682;9.022;2023-06-19T04:46:33;18.90;99.90
42803;DHT22;28447;48.682;9.022;2023-06-19T04:48:58;19.00;99.90
42803;DHT22;28447;48.682;9.022;2023-06-19T04:51:24;19.00;99.90
42803;DHT22;28447;48.682;9.022;2023-06-19T04:53:52;19.10;99.90
42803;DHT22;28447;48.682;9.022;2023-06-19T04:56:17;19.00;99.90
42803;DHT22;28447;48.682;9.022;2023-06-19T04:58:43;19.00;99.90
42803;DHT22;28447;48.682;9.022;2023-06-19T05:01:13;19.10;99.90
42803;DHT22;28447;48.682;9.022;2023-06-19T05:03:39;19.10;99.90
42803;DHT22;28447;48.682;9.022;2023-06-19T05:06:05;19.20;99.90
42803;DHT22;28447;48.682;9.022;2023-06-19T05:08:31;19.30;99.90
42803;DHT22;28447;48.682;9.022;2023-06-19T05:10:56;19.20;99.90
42803;DHT22;28447;48.682;9.022;2023-06-19T05:13:26;19.30;99.90
42803;DHT22;28447;48.682;9.022;2023-06-19T05:15:51;19.40;99.90
42803;DHT22;28447;48.682;9.022;2023-06-19T05:18:17;19.50;99.90
42803;DHT22;28447;48.682;9.022;2023-06-19T05:20:43;19.60;99.90
42803;DHT22;28447;48.682;9.022;2023-06-19T05:23:09;19.60;99.90
42803;DHT22;28447;48.682;9.022;2023-06-19T05:25:35;19.80;99.90
42803;DHT22;28447;48.682;9.022;2023-06-19T05:28:01;19.90;99.90
42803;DHT22;28447;48.682;9.022;2023-06-19T05:30:27;20.00;99.90
42803;DHT22;28447;48.682;9.022;2023-06-19T05:32:52;20.10;99.90
42803;DHT22;28447;48.682;9.022;2023-06-19T05:35:18;20.30;99.90
42803;DHT22;28447;48.682;9.022;2023-06-19T05:37:44;20.30;99.90
42803;DHT22;28447;48.682;9.022;2023-06-19T05:40:10;20.50;99.90
42803;DHT22;28447;48.682;9.022;2023-06-19T05:42:36;20.50;99.90
42803;DHT22;28447;48.682;9.022;2023-06-19T05:45:03;20.60;99.90
42803;DHT22;28447;48.682;9.022;2023-06-19T05:47:28;20.60;99.90
42803;DHT22;28447;48.682;9.022;2023-06-19T05:49:56;20.70;99.90
42803;DHT22;28447;48.682;9.022;2023-06-19T05:52:21;20.60;99.90
42803;DHT22;28447;48.682;9.022;2023-06-19T05:54:47;20.60;99.90
42803;DHT22;28447;48.682;9.022;2023-06-19T05:57:13;20.80;99.90
42803;DHT22;28447;48.682;9.022;2023-06-19T05:59:41;21.10;99.90
42803;DHT22;28447;48.682;9.022;2023-06-19T06:02:07;21.00;99.90
42803;DHT22;28447;48.682;9.022;2023-06-19T06:04:33;20.80;99.90
42803;DHT22;28447;48.682;9.022;2023-06-19T06:06:59;21.00;99.90
42803;DHT22;28447;48.682;9.022;2023-06-19T06:09:25;21.30;99.90
42803;DHT22;28447;48.682;9.022;2023-06-19T06:11:52;21.20;99.90
42803;DHT22;28447;48.682;9.022;2023-06-19T06:14:17;21.10;99.90
42803;DHT22;28447;48.682;9.022;2023-06-19T06:16:43;21.20;99.90
42803;DHT22;28447;48.682;9.022;2023-06-19T06:19:09;21.20;99.90
42803;DHT22;28447;48.682;9.022;2023-06-19T06:21:35;21.20;99.90
42803;DHT22;28447;48.682;9.022;2023-06-19T06:24:00;21.30;99.90
42803;DHT22;28447;48.682;9.022;2023-06-19T06:26:26;21.30;99.90
42803;DHT22;28447;48.682;9.022;2023-06-19T06:28:53;21.50;99.90
42803;DHT22;28447;48.682;9.022;2023-06-19T06:31:19;21.60;99.90
42803;DHT22;28447;48.682;9.022;2023-06-19T06:33:44;21.70;99.90
42803;DHT22;28447;48.682;9.022;2023-06-19T06:36:10;21.80;99.90
42803;DHT22;28447;48.682;9.022;2023-06-19T06:38:36;22.00;99.90
42803;DHT22;28447;48.682;9.022;2023-06-19T06:41:02;22.00;99.90
42803;DHT22;28447;48.682;9.022;2023-06-19T06:43:28;21.60;99.90
42803;DHT22;28447;48.682;9.022;2023-06-19T06:45:53;21.50;99.90
42803;DHT22;28447;48.682;9.022;2023-06-19T06:48:20;21.40;99.90
42803;DHT22;28447;48.682;9.022;2023-06-19T06:50:46;21.50;99.90
42803;DHT22;28447;48.682;9.022;2023-06-19T06:53:11;21.70;99.90
42803;DHT22;28447;48.682;9.022;2023-06-19T06:55:37;21.50;99.90
42803;DHT22;28447;48.682;9.022;2023-06-19T06:58:03;21.50;99.90
42803;DHT22;28447;48.682;9.022;2023-06-19T07:00:28;21.80;99.90
42803;DHT22;28447;48.682;9.022;2023-06-19T07:02:54;22.30;99.90
42803;DHT22;28447;48.682;9.022;2023-06-19T07:05:20;22.40;99.90
42803;DHT22;28447;48.682;9.022;2023-06-19T07:07:46;22.40;99.90
42803;DHT22;28447;48.682;9.022;2023-06-19T07:10:11;22.30;99.90
42803;DHT22;28447;48.682;9.022;2023-06-19T07:12:47;22.30;99.90
42803;DHT22;28447;48.682;9.022;2023-06-19T07:15:13;22.60;99.90
42803;DHT22;28447;48.682;9.022;2023-06-19T07:17:39;23.10;99.90
42803;DHT22;28447;48.682;9.022;2023-06-19T07:20:05;22.90;99.90
42803;DHT22;28447;48.682;9.022;2023-06-19T07:22:32;22.70;99.90
42803;DHT22;28447;48.682;9.022;2023-06-19T07:24:57;22.70;99.90
42803;DHT22;28447;48.682;9.022;2023-06-19T07:27:23;22.90;99.90
42803;DHT22;28447;48.682;9.022;2023-06-19T07:29:53;23.00;99.90
42803;DHT22;28447;48.682;9.022;2023-06-19T07:32:18;23.00;99.90
42803;DHT22;28447;48.682;9.022;2023-06-19T07:34:45;23.10;99.90
42803;DHT22;28447;48.682;9.022;2023-06-19T07:37:11;23.90;99.90
42803;DHT22;28447;48.682;9.022;2023-06-19T07:39:51;24.30;99.90
42803;DHT22;28447;48.682;9.022;2023-06-19T07:42:18;24.10;99.90
42803;DHT22;28447;48.682;9.022;2023-06-19T07:44:45;23.80;99.90
42803;DHT22;28447;48.682;9.022;2023-06-19T07:47:11;23.70;99.90
42803;DHT22;28447;48.682;9.022;2023-06-19T07:49:37;23.30;99.90
42803;DHT22;28447;48.682;9.022;2023-06-19T07:52:04;23.40;99.90
42803;DHT22;28447;48.682;9.022;2023-06-19T07:54:30;22.90;99.90
42803;DHT22;28447;48.682;9.022;2023-06-19T07:56:55;22.90;99.90
42803;DHT22;28447;48.682;9.022;2023-06-19T07:59:21;23.20;99.90
42803;DHT22;28447;48.682;9.022;2023-06-19T08:01:48;23.40;99.90
42803;DHT22;28447;48.682;9.022;2023-06-19T08:04:14;23.60;99.90
42803;DHT22;28447;48.682;9.022;2023-06-19T08:06:40;23.50;99.90
42803;DHT22;28447;48.682;9.022;2023-06-19T08:09:05;23.50;99.90
42803;DHT22;28447;48.682;9.022;2023-06-19T08:11:31;23.20;99.90
42803;DHT22;28447;48.682;9.022;2023-06-19T08:13:57;23.40;99.90
42803;DHT22;28447;48.682;9.022;2023-06-19T08:16:24;23.10;99.90
42803;DHT22;28447;48.682;9.022;2023-06-19T08:18:51;23.30;99.90
42803;DHT22;28447;48.682;9.022;2023-06-19T08:21:16;23.00;99.90
42803;DHT22;28447;48.682;9.022;2023-06-19T08:23:42;23.00;99.90
42803;DHT22;28447;48.682;9.022;2023-06-19T08:26:09;23.40;99.90
42803;DHT22;28447;48.682;9.022;2023-06-19T08:28:37;23.70;99.90
42803;DHT22;28447;48.682;9.022;2023-06-19T08:31:02;25.20;99.90
42803;DHT22;28447;48.682;9.022;2023-06-19T08:33:28;25.00;99.90
42803;DHT22;28447;48.682;9.022;2023-06-19T08:35:54;25.00;99.90
42803;DHT22;28447;48.682;9.022;2023-06-19T08:38:19;24.60;99.90
42803;DHT22;28447;48.682;9.022;2023-06-19T08:40:45;25.10;99.90
42803;DHT22;28447;48.682;9.022;2023-06-19T08:43:11;26.00;99.90
42803;DHT22;28447;48.682;9.022;2023-06-19T08:45:37;26.00;98.30
42803;DHT22;28447;48.682;9.022;2023-06-19T08:48:03;27.10;98.10
42803;DHT22;28447;48.682;9.022;2023-06-19T08:50:32;27.20;95.50
42803;DHT22;28447;48.682;9.022;2023-06-19T08:52:58;27.10;94.70
42803;DHT22;28447;48.682;9.022;2023-06-19T08:55:24;27.20;96.10
42803;DHT22;28447;48.682;9.022;2023-06-19T08:57:50;26.80;96.00
42803;DHT22;28447;48.682;9.022;2023-06-19T09:00:26;26.70;95.50
42803;DHT22;28447;48.682;9.022;2023-06-19T09:02:57;25.60;96.90
42803;DHT22;28447;48.682;9.022;2023-06-19T09:05:23;25.60;97.30
42803;DHT22;28447;48.682;9.022;2023-06-19T09:07:59;25.50;97.20
42803;DHT22;28447;48.682;9.022;2023-06-19T09:10:28;25.30;96.70
42803;DHT22;28447;48.682;9.022;2023-06-19T09:13:04;25.40;96.90
42803;DHT22;28447;48.682;9.022;2023-06-19T09:15:32;24.70;97.20
42803;DHT22;28447;48.682;9.022;2023-06-19T09:18:05;24.40;97.90
42803;DHT22;28447;48.682;9.022;2023-06-19T09:20:32;24.60;97.60
42803;DHT22;28447;48.682;9.022;2023-06-19T09:22:59;24.60;98.20
42803;DHT22;28447;48.682;9.022;2023-06-19T09:25:24;24.30;98.70
42803;DHT22;28447;48.682;9.022;2023-06-19T09:27:53;25.30;97.30
42803;DHT22;28447;48.682;9.022;2023-06-19T09:30:19;25.90;96.80
42803;DHT22;28447;48.682;9.022;2023-06-19T09:32:45;26.00;97.00
42803;DHT22;28447;48.682;9.022;2023-06-19T09:35:11;26.00;96.80
42803;DHT22;28447;48.682;9.022;2023-06-19T09:37:38;27.20;94.70
42803;DHT22;28447;48.682;9.022;2023-06-19T09:40:06;26.40;94.50
42803;DHT22;28447;48.682;9.022;2023-06-19T09:42:44;28.10;93.90
42803;DHT22;28447;48.682;9.022;2023-06-19T09:45:12;29.20;91.10
42803;DHT22;28447;48.682;9.022;2023-06-19T09:47:47;29.40;91.20
42803;DHT22;28447;48.682;9.022;2023-06-19T09:50:15;30.20;90.60
42803;DHT22;28447;48.682;9.022;2023-06-19T09:52:42;30.50;89.50
42803;DHT22;28447;48.682;9.022;2023-06-19T09:55:09;29.80;84.60
42803;DHT22;28447;48.682;9.022;2023-06-19T09:57:38;30.50;87.20
42803;DHT22;28447;48.682;9.022;2023-06-19T10:00:06;31.50;83.30
42803;DHT22;28447;48.682;9.022;2023-06-19T10:02:43;28.70;88.40
42803;DHT22;28447;48.682;9.022;2023-06-19T10:05:09;30.20;88.30
42803;DHT22;28447;48.682;9.022;2023-06-19T10:07:38;30.80;85.60
42803;DHT22;28447;48.682;9.022;2023-06-19T10:10:09;29.70;84.00
42803;DHT22;28447;48.682;9.022;2023-06-19T10:12:45;30.20;87.70
42803;DHT22;28447;48.682;9.022;2023-06-19T10:15:22;31.00;81.60
42803;DHT22;28447;48.682;9.022;2023-06-19T10:18:02;29.50;84.60
42803;DHT22;28447;48.682;9.022;2023-06-19T10:23:16;29.60;85.40
42803;DHT22;28447;48.682;9.022;2023-06-19T10:25:44;28.70;84.40
42803;DHT22;28447;48.682;9.022;2023-06-19T10:28:23;29.10;87.30
42803;DHT22;28447;48.682;9.022;2023-06-19T10:31:00;30.50;83.80
42803;DHT22;28447;48.682;9.022;2023-06-19T10:33:30;31.20;81.40
42803;DHT22;28447;48.682;9.022;2023-06-19T10:35:58;30.70;83.50
42803;DHT22;28447;48.682;9.022;2023-06-19T10:38:25;30.00;84.50
42803;DHT22;28447;48.682;9.022;2023-06-19T10:40:51;29.50;83.50
42803;DHT22;28447;48.682;9.022;2023-06-19T10:43:24;29.60;86.40
42803;DHT22;28447;48.682;9.022;2023-06-19T10:45:53;29.40;86.20
42803;DHT22;28447;48.682;9.022;2023-06-19T10:48:23;29.60;85.90
42803;DHT22;28447;48.682;9.022;2023-06-19T10:50:50;29.30;86.00
42803;DHT22;28447;48.682;9.022;2023-06-19T10:53:25;30.30;85.00
42803;DHT22;28447;48.682;9.022;2023-06-19T10:55:56;30.00;83.30
42803;DHT22;28447;48.682;9.022;2023-06-19T10:58:22;30.60;82.70
42803;DHT22;28447;48.682;9.022;2023-06-19T11:00:48;30.50;83.00
42803;DHT22;28447;48.682;9.022;2023-06-19T11:03:14;30.90;80.60
42803;DHT22;28447;48.682;9.022;2023-06-19T11:05:43;30.90;80.80
42803;DHT22;28447;48.682;9.022;2023-06-19T11:08:09;31.70;80.90
42803;DHT22;28447;48.682;9.022;2023-06-19T11:10:35;32.80;77.00
42803;DHT22;28447;48.682;9.022;2023-06-19T11:13:01;33.70;75.70
42803;DHT22;28447;48.682;9.022;2023-06-19T11:15:30;33.60;77.20
42803;DHT22;28447;48.682;9.022;2023-06-19T11:17:56;33.60;77.50
42803;DHT22;28447;48.682;9.022;2023-06-19T11:20:22;32.00;80.00
42803;DHT22;28447;48.682;9.022;2023-06-19T11:22:55;32.00;80.20
42803;DHT22;28447;48.682;9.022;2023-06-19T11:25:21;31.10;80.50
42803;DHT22;28447;48.682;9.022;2023-06-19T11:27:46;30.60;81.50
42803;DHT22;28447;48.682;9.022;2023-06-19T11:30:18;30.10;84.10
42803;DHT22;28447;48.682;9.022;2023-06-19T11:32:45;30.10;84.70
42803;DHT22;28447;48.682;9.022;2023-06-19T11:35:11;29.90;84.00
42803;DHT22;28447;48.682;9.022;2023-06-19T11:37:41;30.00;83.70
42803;DHT22;28447;48.682;9.022;2023-06-19T11:40:07;28.40;86.40
42803;DHT22;28447;48.682;9.022;2023-06-19T11:42:48;28.70;87.30
42803;DHT22;28447;48.682;9.022;2023-06-19T11:45:14;29.90;85.30
42803;DHT22;28447;48.682;9.022;2023-06-19T11:47:40;30.20;83.50
42803;DHT22;28447;48.682;9.022;2023-06-19T11:50:07;30.30;83.70
42803;DHT22;28447;48.682;9.022;2023-06-19T11:52:33;30.00;84.90
42803;DHT22;28447;48.682;9.022;2023-06-19T11:54:58;31.10;83.50
42803;DHT22;28447;48.682;9.022;2023-06-19T11:57:24;32.80;77.30
42803;DHT22;28447;48.682;9.022;2023-06-19T11:59:51;33.10;79.30
42803;DHT22;28447;48.682;9.022;2023-06-19T12:02:17;33.80;74.40
42803;DHT22;28447;48.682;9.022;2023-06-19T12:04:42;33.10;77.20
42803;DHT22;28447;48.682;9.022;2023-06-19T12:07:08;32.90;78.90
42803;DHT22;28447;48.682;9.022;2023-06-19T12:09:34;33.00;79.20
42803;DHT22;28447;48.682;9.022;2023-06-19T12:12:00;34.00;75.60
42803;DHT22;28447;48.682;9.022;2023-06-19T12:14:26;34.60;74.30
42803;DHT22;28447;48.682;9.022;2023-06-19T12:16:52;36.70;69.90
42803;DHT22;28447;48.682;9.022;2023-06-19T12:19:18;36.00;69.40
42803;DHT22;28447;48.682;9.022;2023-06-19T12:21:43;37.00;66.80
42803;DHT22;28447;48.682;9.022;2023-06-19T12:24:09;36.80;67.20
42803;DHT22;28447;48.682;9.022;2023-06-19T12:26:35;36.80;64.90
42803;DHT22;28447;48.682;9.022;2023-06-19T12:29:05;35.60;70.00
42803;DHT22;28447;48.682;9.022;2023-06-19T12:31:32;34.00;72.70
42803;DHT22;28447;48.682;9.022;2023-06-19T12:33:58;36.00;68.50
42803;DHT22;28447;48.682;9.022;2023-06-19T12:36:25;35.80;67.00
42803;DHT22;28447;48.682;9.022;2023-06-19T12:38:52;34.60;68.50
42803;DHT22;28447;48.682;9.022;2023-06-19T12:41:19;33.40;72.10
42803;DHT22;28447;48.682;9.022;2023-06-19T12:43:45;35.20;69.40
42803;DHT22;28447;48.682;9.022;2023-06-19T12:46:11;34.80;69.20
42803;DHT22;28447;48.682;9.022;2023-06-19T12:48:37;33.80;71.60
42803;DHT22;28447;48.682;9.022;2023-06-19T12:51:02;33.90;72.20
42803;DHT22;28447;48.682;9.022;2023-06-19T12:53:28;32.40;75.50
42803;DHT22;28447;48.682;9.022;2023-06-19T12:55:58;32.10;77.60
42803;DHT22;28447;48.682;9.022;2023-06-19T12:58:24;31.90;77.20
42803;DHT22;28447;48.682;9.022;2023-06-19T13:00:50;32.70;75.10
42803;DHT22;28447;48.682;9.022;2023-06-19T13:03:16;32.00;76.00
42803;DHT22;28447;48.682;9.022;2023-06-19T13:05:42;31.80;77.40
42803;DHT22;28447;48.682;9.022;2023-06-19T13:08:07;31.90;75.40
42803;DHT22;28447;48.682;9.022;2023-06-19T13:10:33;31.60;76.40
42803;DHT22;28447;48.682;9.022;2023-06-19T13:12:59;32.50;75.50
42803;DHT22;28447;48.682;9.022;2023-06-19T13:15:25;33.70;72.80
42803;DHT22;28447;48.682;9.022;2023-06-19T13:17:51;32.80;73.50
42803;DHT22;28447;48.682;9.022;2023-06-19T13:20:17;31.80;75.90
42803;DHT22;28447;48.682;9.022;2023-06-19T13:22:42;31.50;77.30
42803;DHT22;28447;48.682;9.022;2023-06-19T13:25:08;31.90;76.00
42803;DHT22;28447;48.682;9.022;2023-06-19T13:27:34;31.70;76.20
42803;DHT22;28447;48.682;9.022;2023-06-19T13:30:00;31.60;76.30
42803;DHT22;28447;48.682;9.022;2023-06-19T13:32:26;31.60;77.70
42803;DHT22;28447;48.682;9.022;2023-06-19T13:34:52;32.50;75.50
42803;DHT22;28447;48.682;9.022;2023-06-19T13:37:18;31.80;75.90
42803;DHT22;28447;48.682;9.022;2023-06-19T13:39:45;31.80;77.80
42803;DHT22;28447;48.682;9.022;2023-06-19T13:42:11;32.60;76.20
42803;DHT22;28447;48.682;9.022;2023-06-19T13:44:37;32.90;74.10
42803;DHT22;28447;48.682;9.022;2023-06-19T13:47:03;33.00;74.80
42803;DHT22;28447;48.682;9.022;2023-06-19T13:49:29;33.50;74.40
42803;DHT22;28447;48.682;9.022;2023-06-19T13:51:55;33.40;72.80
42803;DHT22;28447;48.682;9.022;2023-06-19T13:54:21;32.80;74.30
42803;DHT22;28447;48.682;9.022;2023-06-19T13:56:47;32.50;75.60
42803;DHT22;28447;48.682;9.022;2023-06-19T13:59:14;33.30;72.40
42803;DHT22;28447;48.682;9.022;2023-06-19T14:01:40;33.80;70.00
42803;DHT22;28447;48.682;9.022;2023-06-19T14:04:07;35.10;69.70
42803;DHT22;28447;48.682;9.022;2023-06-19T14:06:34;35.00;67.40
42803;DHT22;28447;48.682;9.022;2023-06-19T14:08:59;35.30;68.60
42803;DHT22;28447;48.682;9.022;2023-06-19T14:11:25;36.30;67.10
42803;DHT22;28447;48.682;9.022;2023-06-19T14:13:51;36.40;67.90
42803;DHT22;28447;48.682;9.022;2023-06-19T14:16:16;36.20;66.60
42803;DHT22;28447;48.682;9.022;2023-06-19T14:18:42;34.40;64.80
42803;DHT22;28447;48.682;9.022;2023-06-19T14:21:08;33.00;69.30
42803;DHT22;28447;48.682;9.022;2023-06-19T14:23:33;33.60;69.80
42803;DHT22;28447;48.682;9.022;2023-06-19T14:26:04;34.50;67.50
42803;DHT22;28447;48.682;9.022;2023-06-19T14:28:29;32.00;69.20
42803;DHT22;28447;48.682;9.022;2023-06-19T14:30:55;30.80;73.20
42803;DHT22;28447;48.682;9.022;2023-06-19T14:33:21;30.90;74.70
42803;DHT22;28447;48.682;9.022;2023-06-19T14:35:47;31.70;72.90
42803;DHT22;28447;48.682;9.022;2023-06-19T14:38:13;32.10;73.60
42803;DHT22;28447;48.682;9.022;2023-06-19T14:40:40;31.50;72.70
42803;DHT22;28447;48.682;9.022;2023-06-19T14:43:05;31.90;73.20
42803;DHT22;28447;48.682;9.022;2023-06-19T14:45:31;32.50;72.30
42803;DHT22;28447;48.682;9.022;2023-06-19T14:47:56;32.90;71.40
42803;DHT22;28447;48.682;9.022;2023-06-19T14:50:22;33.40;71.00
42803;DHT22;28447;48.682;9.022;2023-06-19T14:52:48;33.50;69.50
42803;DHT22;28447;48.682;9.022;2023-06-19T14:55:14;33.50;69.60
42803;DHT22;28447;48.682;9.022;2023-06-19T14:57:39;33.60;70.00
42803;DHT22;28447;48.682;9.022;2023-06-19T15:00:05;32.50;71.10
42803;DHT22;28447;48.682;9.022;2023-06-19T15:02:31;33.70;69.80
42803;DHT22;28447;48.682;9.022;2023-06-19T15:04:57;34.30;68.50
42803;DHT22;28447;48.682;9.022;2023-06-19T15:07:23;34.10;67.50
42803;DHT22;28447;48.682;9.022;2023-06-19T15:09:49;33.60;71.10
42803;DHT22;28447;48.682;9.022;2023-06-19T15:12:14;33.70;69.80
42803;DHT22;28447;48.682;9.022;2023-06-19T15:14:40;33.60;69.00
42803;DHT22;28447;48.682;9.022;2023-06-19T15:17:06;33.80;69.10
42803;DHT22;28447;48.682;9.022;2023-06-19T15:19:32;33.30;68.80
42803;DHT22;28447;48.682;9.022;2023-06-19T15:21:58;33.30;69.70
42803;DHT22;28447;48.682;9.022;2023-06-19T15:24:23;32.10;70.60
42803;DHT22;28447;48.682;9.022;2023-06-19T15:26:49;32.30;71.80
42803;DHT22;28447;48.682;9.022;2023-06-19T15:29:15;32.30;71.20
42803;DHT22;28447;48.682;9.022;2023-06-19T15:31:40;32.20;71.10
42803;DHT22;28447;48.682;9.022;2023-06-19T15:34:06;32.50;70.50
42803;DHT22;28447;48.682;9.022;2023-06-19T15:36:32;32.60;71.10
42803;DHT22;28447;48.682;9.022;2023-06-19T15:38:57;32.90;68.40
42803;DHT22;28447;48.682;9.022;2023-06-19T15:41:23;33.40;69.60
42803;DHT22;28447;48.682;9.022;2023-06-19T15:43:49;33.70;68.50
42803;DHT22;28447;48.682;9.022;2023-06-19T15:46:15;34.50;68.10
42803;DHT22;28447;48.682;9.022;2023-06-19T15:48:41;35.20;67.00
42803;DHT22;28447;48.682;9.022;2023-06-19T15:51:07;34.50;65.00
42803;DHT22;28447;48.682;9.022;2023-06-19T15:53:33;34.80;65.10
42803;DHT22;28447;48.682;9.022;2023-06-19T15:55:59;33.40;63.60
42803;DHT22;28447;48.682;9.022;2023-06-19T15:58:25;32.40;67.40
42803;DHT22;28447;48.682;9.022;2023-06-19T16:00:50;32.10;67.10
42803;DHT22;28447;48.682;9.022;2023-06-19T16:03:19;31.10;66.20
42803;DHT22;28447;48.682;9.022;2023-06-19T16:05:45;30.20;69.10
42803;DHT22;28447;48.682;9.022;2023-06-19T16:08:18;29.90;69.00
42803;DHT22;28447;48.682;9.022;2023-06-19T16:10:45;30.60;69.20
42803;DHT22;28447;48.682;9.022;2023-06-19T16:13:11;30.80;70.50
42803;DHT22;28447;48.682;9.022;2023-06-19T16:15:37;30.30;70.70
42803;DHT22;28447;48.682;9.022;2023-06-19T16:18:02;30.60;71.10
42803;DHT22;28447;48.682;9.022;2023-06-19T16:20:29;30.70;74.90
42803;DHT22;28447;48.682;9.022;2023-06-19T16:22:55;30.80;73.20
42803;DHT22;28447;48.682;9.022;2023-06-19T16:25:20;30.70;70.60
42803;DHT22;28447;48.682;9.022;2023-06-19T16:27:48;30.60;75.30
42803;DHT22;28447;48.682;9.022;2023-06-19T16:30:14;30.30;74.90
42803;DHT22;28447;48.682;9.022;2023-06-19T16:32:40;29.50;78.90
42803;DHT22;28447;48.682;9.022;2023-06-19T16:35:06;28.20;83.20
42803;DHT22;28447;48.682;9.022;2023-06-19T16:37:31;28.10;83.70
42803;DHT22;28447;48.682;9.022;2023-06-19T16:39:57;28.70;80.80
42803;DHT22;28447;48.682;9.022;2023-06-19T16:42:24;28.90;81.10
42803;DHT22;28447;48.682;9.022;2023-06-19T16:44:51;28.70;82.30
42803;DHT22;28447;48.682;9.022;2023-06-19T16:47:17;28.50;84.10
42803;DHT22;28447;48.682;9.022;2023-06-19T16:49:42;28.50;84.60
42803;DHT22;28447;48.682;9.022;2023-06-19T16:52:08;28.20;85.30
42803;DHT22;28447;48.682;9.022;2023-06-19T16:54:34;28.60;84.80
42803;DHT22;28447;48.682;9.022;2023-06-19T16:56:59;28.60;85.10
42803;DHT22;28447;48.682;9.022;2023-06-19T16:59:25;28.10;86.00
42803;DHT22;28447;48.682;9.022;2023-06-19T17:01:51;28.20;86.60
42803;DHT22;28447;48.682;9.022;2023-06-19T17:04:17;27.90;86.90
42803;DHT22;28447;48.682;9.022;2023-06-19T17:06:42;27.60;87.70
42803;DHT22;28447;48.682;9.022;2023-06-19T17:09:08;27.70;88.50
42803;DHT22;28447;48.682;9.022;2023-06-19T17:11:34;27.70;86.40
42803;DHT22;28447;48.682;9.022;2023-06-19T17:14:00;27.70;88.70
42803;DHT22;28447;48.682;9.022;2023-06-19T17:16:25;27.50;88.60
42803;DHT22;28447;48.682;9.022;2023-06-19T17:18:51;27.20;89.70
42803;DHT22;28447;48.682;9.022;2023-06-19T17:21:17;27.30;90.00
42803;DHT22;28447;48.682;9.022;2023-06-19T17:23:42;27.20;90.10
42803;DHT22;28447;48.682;9.022;2023-06-19T17:26:08;27.10;90.40
42803;DHT22;28447;48.682;9.022;2023-06-19T17:28:34;27.40;90.10
42803;DHT22;28447;48.682;9.022;2023-06-19T17:30:59;27.40;90.40
42803;DHT22;28447;48.682;9.022;2023-06-19T17:33:26;27.50;90.90
42803;DHT22;28447;48.682;9.022;2023-06-19T17:35:52;27.60;90.10
42803;DHT22;28447;48.682;9.022;2023-06-19T17:38:17;27.50;90.50
42803;DHT22;28447;48.682;9.022;2023-06-19T17:40:43;27.30;91.10
42803;DHT22;28447;48.682;9.022;2023-06-19T17:43:09;27.00;91.10
42803;DHT22;28447;48.682;9.022;2023-06-19T17:45:34;27.10;91.20
42803;DHT22;28447;48.682;9.022;2023-06-19T17:48:00;27.30;90.60
42803;DHT22;28447;48.682;9.022;2023-06-19T17:50:27;27.30;90.70
42803;DHT22;28447;48.682;9.022;2023-06-19T17:52:53;27.30;91.10
42803;DHT22;28447;48.682;9.022;2023-06-19T17:55:19;26.90;91.20
42803;DHT22;28447;48.682;9.022;2023-06-19T17:57:44;26.90;91.30
42803;DHT22;28447;48.682;9.022;2023-06-19T18:00:10;27.10;91.50
42803;DHT22;28447;48.682;9.022;2023-06-19T18:02:36;27.10;91.60
42803;DHT22;28447;48.682;9.022;2023-06-19T18:05:02;27.10;91.30
42803;DHT22;28447;48.682;9.022;2023-06-19T18:07:28;27.00;91.20
42803;DHT22;28447;48.682;9.022;2023-06-19T18:09:53;26.80;92.20
42803;DHT22;28447;48.682;9.022;2023-06-19T18:12:20;26.90;92.00
42803;DHT22;28447;48.682;9.022;2023-06-19T18:14:46;27.10;91.50
42803;DHT22;28447;48.682;9.022;2023-06-19T18:17:12;27.00;91.60
42803;DHT22;28447;48.682;9.022;2023-06-19T18:19:38;26.90;91.40
42803;DHT22;28447;48.682;9.022;2023-06-19T18:22:04;26.70;91.90
42803;DHT22;28447;48.682;9.022;2023-06-19T18:24:30;26.90;91.90
42803;DHT22;28447;48.682;9.022;2023-06-19T18:26:56;26.70;91.90
42803;DHT22;28447;48.682;9.022;2023-06-19T18:29:22;26.70;91.70
42803;DHT22;28447;48.682;9.022;2023-06-19T18:31:49;26.60;92.10
42803;DHT22;28447;48.682;9.022;2023-06-19T18:34:15;26.40;92.50
42803;DHT22;28447;48.682;9.022;2023-06-19T18:36:41;26.20;93.00
42803;DHT22;28447;48.682;9.022;2023-06-19T18:39:06;26.20;92.80
42803;DHT22;28447;48.682;9.022;2023-06-19T18:41:32;25.80;93.00
42803;DHT22;28447;48.682;9.022;2023-06-19T18:43:58;25.70;94.10
42803;DHT22;28447;48.682;9.022;2023-06-19T18:46:24;25.80;93.40
42803;DHT22;28447;48.682;9.022;2023-06-19T18:48:49;25.80;93.40
42803;DHT22;28447;48.682;9.022;2023-06-19T18:51:15;25.70;94.00
42803;DHT22;28447;48.682;9.022;2023-06-19T18:53:41;25.60;94.10
42803;DHT22;28447;48.682;9.022;2023-06-19T18:56:06;25.60;94.50
42803;DHT22;28447;48.682;9.022;2023-06-19T18:58:32;25.60;94.10
42803;DHT22;28447;48.682;9.022;2023-06-19T19:00:58;25.60;94.30
42803;DHT22;28447;48.682;9.022;2023-06-19T19:03:24;25.50;94.80
42803;DHT22;28447;48.682;9.022;2023-06-19T19:05:49;25.30;94.40
42803;DHT22;28447;48.682;9.022;2023-06-19T19:08:15;25.30;94.70
42803;DHT22;28447;48.682;9.022;2023-06-19T19:10:41;25.20;94.40
42803;DHT22;28447;48.682;9.022;2023-06-19T19:13:07;25.10;94.80
42803;DHT22;28447;48.682;9.022;2023-06-19T19:15:37;25.10;95.00
42803;DHT22;28447;48.682;9.022;2023-06-19T19:18:02;25.00;94.80
42803;DHT22;28447;48.682;9.022;2023-06-19T19:20:28;24.80;95.10
42803;DHT22;28447;48.682;9.022;2023-06-19T19:22:54;24.70;95.40
42803;DHT22;28447;48.682;9.022;2023-06-19T19:25:20;24.70;95.60
42803;DHT22;28447;48.682;9.022;2023-06-19T19:27:45;24.70;95.70